Time;durP1;ratioP1;P1;durP2;ratioP2;P2;SDS_P1;SDS_P2;PMS_P1;PMS_P2;Temp;Humidity;BMP_temperature;BMP_pressure;BME280_temperature;BME280_humidity;BME280_pressure;Samples;Min_cycle;Max_cycle;Signal;HPM_P1;HPM_P2
2022/08/15 00:01:24;;;;;;;5.20;3.10;;;23.00;92.30;;;;;;5071116;28;20508;-90
2022/08/15 00:03:55;;;;;;;4.17;2.60;;;23.10;93.00;;;;;;5071080;28;20505;-91
2022/08/15 00:06:24;;;;;;;5.13;3.17;;;23.00;93.10;;;;;;5071355;28;20467;-90
2022/08/15 00:08:54;;;;;;;4.17;2.80;;;22.90;95.00;;;;;;5070665;28;20469;-90
2022/08/15 00:11:31;;;;;;;5.00;3.10;;;22.90;94.60;;;;;;5071181;28;20837;-91
2022/08/15 00:14:00;;;;;;;3.60;2.77;;;22.80;95.00;;;;;;5071259;28;20514;-91
2022/08/15 00:16:32;;;;;;;5.00;3.13;;;22.90;94.30;;;;;;5071172;28;20813;-90
2022/08/15 00:18:59;;;;;;;5.40;3.20;;;23.00;94.90;;;;;;5070405;28;20457;-91
2022/08/15 00:21:27;;;;;;;3.50;2.70;;;22.90;95.20;;;;;;5070885;28;20480;-91
2022/08/15 00:23:55;;;;;;;4.40;2.80;;;22.90;94.90;;;;;;5070650;28;20480;-91
2022/08/15 00:26:23;;;;;;;4.07;2.67;;;22.90;94.20;;;;;;5071321;28;20895;-91
2022/08/15 00:28:50;;;;;;;4.57;3.37;;;22.80;94.10;;;;;;5071967;28;20947;-90
2022/08/15 00:31:21;;;;;;;4.47;2.97;;;22.80;94.20;;;;;;5074862;28;20487;-90
2022/08/15 00:33:48;;;;;;;4.47;2.80;;;22.80;94.10;;;;;;5074891;28;20467;-91
2022/08/15 00:36:15;;;;;;;4.97;2.67;;;22.80;94.60;;;;;;5074755;28;20495;-91
2022/08/15 00:38:43;;;;;;;3.57;2.60;;;22.70;95.20;;;;;;5074398;28;20833;-91
2022/08/15 00:44:00;;;;;;;2.93;2.27;;;22.60;95.00;;;;;;5074453;28;20479;-91
2022/08/15 00:46:30;;;;;;;4.60;2.70;;;22.60;95.20;;;;;;5074474;28;20448;-91
2022/08/15 00:48:57;;;;;;;3.60;2.50;;;22.80;95.20;;;;;;5073742;28;20460;-90
2022/08/15 00:51:31;;;;;;;4.60;2.90;;;23.00;94.70;;;;;;5074510;28;20857;-91
2022/08/15 00:54:05;;;;;;;5.87;3.40;;;23.20;94.50;;;;;;5074578;28;20468;-90
2022/08/15 00:56:39;;;;;;;5.60;3.20;;;23.10;93.80;;;;;;5074522;28;20491;-90
2022/08/15 00:59:11;;;;;;;4.00;2.70;;;23.10;93.90;;;;;;5073557;28;21000;-91
2022/08/15 01:01:39;;;;;;;9.80;2.87;;;23.20;93.50;;;;;;5074260;28;20508;-91
2022/08/15 01:04:08;;;;;;;4.27;3.00;;;23.40;93.90;;;;;;5074258;28;20483;-91
2022/08/15 01:06:37;;;;;;;4.13;2.60;;;23.20;93.90;;;;;;5074372;28;20460;-91
2022/08/15 01:09:06;;;;;;;4.57;2.67;;;23.20;94.00;;;;;;5073596;28;20464;-91
2022/08/15 01:11:39;;;;;;;4.90;3.03;;;23.20;94.10;;;;;;5072932;28;20851;-91
2022/08/15 01:14:09;;;;;;;3.27;2.67;;;23.20;94.40;;;;;;5074330;28;20538;-90
2022/08/15 01:16:39;;;;;;;5.30;3.23;;;23.30;94.30;;;;;;5074457;28;20465;-90
2022/08/15 01:19:13;;;;;;;4.40;2.70;;;23.30;94.50;;;;;;5073467;28;20792;-90
2022/08/15 01:22:03;;;;;;;3.77;3.00;;;23.20;94.90;;;;;;5074154;28;20473;-91
2022/08/15 01:24:47;;;;;;;3.30;2.50;;;23.10;95.40;;;;;;5074097;28;20476;-91
2022/08/15 01:27:16;;;;;;;4.53;2.90;;;23.10;95.80;;;;;;5073378;28;20456;-91
2022/08/15 01:29:45;;;;;;;4.50;2.97;;;23.10;96.10;;;;;;5074060;28;20465;-91
2022/08/15 01:32:13;;;;;;;4.43;2.47;;;22.90;96.50;;;;;;5073934;28;20560;-91
2022/08/15 01:34:40;;;;;;;9.73;2.80;;;22.70;97.50;;;;;;5074052;28;20536;-90
2022/08/15 01:37:07;;;;;;;4.50;2.90;;;22.80;96.70;;;;;;5073222;28;20488;-91
2022/08/15 01:39:43;;;;;;;3.10;2.30;;;22.80;96.50;;;;;;5072835;28;20485;-90
2022/08/15 01:42:13;;;;;;;4.90;2.57;;;22.90;96.40;;;;;;5073402;28;20449;-91
2022/08/15 01:44:45;;;;;;;3.53;2.60;;;22.90;96.50;;;;;;5073452;28;20483;-90
2022/08/15 01:47:18;;;;;;;4.13;2.70;;;22.90;96.70;;;;;;5073020;28;20503;-91
2022/08/15 01:49:56;;;;;;;3.60;2.63;;;22.90;96.70;;;;;;5073317;28;20536;-90
2022/08/15 01:52:29;;;;;;;5.70;2.97;;;22.90;96.70;;;;;;5073685;28;20457;-91
2022/08/15 01:54:59;;;;;;;3.67;3.00;;;23.10;96.60;;;;;;5073575;28;20457;-91
2022/08/15 01:57:27;;;;;;;4.70;3.03;;;23.00;96.40;;;;;;5073095;28;20460;-91
2022/08/15 01:59:57;;;;;;;4.20;2.67;;;23.10;96.70;;;;;;5072890;28;20490;-91
2022/08/15 02:02:25;;;;;;;3.13;2.43;;;23.10;96.40;;;;;;5073432;28;20448;-90
2022/08/15 02:04:53;;;;;;;4.20;2.80;;;23.20;96.30;;;;;;5073070;28;20504;-91
2022/08/15 02:07:25;;;;;;;2.97;2.23;;;23.10;96.40;;;;;;5072557;28;20479;-91
2022/08/15 02:09:54;;;;;;;4.27;2.60;;;23.20;96.40;;;;;;5072896;28;20453;-91
2022/08/15 02:12:28;;;;;;;3.50;2.20;;;23.10;96.70;;;;;;5073020;28;20457;-91
2022/08/15 02:14:55;;;;;;;3.73;2.43;;;23.00;97.00;;;;;;5072987;28;20457;-90
2022/08/15 02:17:22;;;;;;;4.10;2.70;;;23.00;97.00;;;;;;5072632;28;20456;-91
2022/08/15 02:19:50;;;;;;;5.20;2.50;;;23.00;97.10;;;;;;5072767;28;20822;-91
2022/08/15 02:22:21;;;;;;;3.33;2.50;;;23.00;96.90;;;;;;5072628;28;20479;-90
2022/08/15 02:24:48;;;;;;;3.30;2.20;;;23.00;97.20;;;;;;5072512;28;20492;-91
2022/08/15 02:27:16;;;;;;;4.63;2.90;;;23.10;97.10;;;;;;5072236;28;20457;-91
2022/08/15 02:29:45;;;;;;;3.43;2.50;;;23.00;97.40;;;;;;5072422;28;20468;-91
2022/08/15 02:32:15;;;;;;;3.63;2.17;;;23.10;97.40;;;;;;5072654;28;20950;-90
2022/08/15 02:34:44;;;;;;;4.80;2.97;;;23.00;97.60;;;;;;5072798;28;20511;-91
2022/08/15 02:37:18;;;;;;;4.47;2.83;;;22.90;97.90;;;;;;5071912;28;20476;-90
2022/08/15 02:39:46;;;;;;;2.90;2.33;;;22.90;98.00;;;;;;5072352;28;20487;-90
2022/08/15 02:42:15;;;;;;;3.27;2.53;;;22.80;98.00;;;;;;5072711;28;20636;-90
2022/08/15 02:44:44;;;;;;;5.00;2.70;;;22.70;98.00;;;;;;5072205;28;20567;-90
2022/08/15 02:47:14;;;;;;;3.90;2.40;;;22.70;98.00;;;;;;5071951;28;20826;-90
2022/08/15 02:49:41;;;;;;;3.30;2.60;;;22.70;98.00;;;;;;5072326;28;20468;-91
2022/08/15 02:52:09;;;;;;;4.30;2.70;;;22.90;98.00;;;;;;5071791;28;20959;-90
2022/08/15 02:54:36;;;;;;;4.43;2.77;;;22.90;98.00;;;;;;5071994;28;20452;-90
2022/08/15 02:57:04;;;;;;;5.57;3.33;;;22.90;98.00;;;;;;5071758;28;20460;-90
2022/08/15 02:59:31;;;;;;;7.20;3.03;;;22.90;98.00;;;;;;5071861;28;20467;-90
2022/08/15 03:01:59;;;;;;;4.83;2.40;;;22.80;98.00;;;;;;5071939;28;20491;-91
2022/08/15 03:04:30;;;;;;;3.03;2.37;;;23.00;98.00;;;;;;5071818;28;20493;-90
2022/08/15 03:06:57;;;;;;;3.90;2.37;;;23.10;98.00;;;;;;5071405;28;20465;-90
2022/08/15 03:09:24;;;;;;;3.40;2.47;;;23.10;98.00;;;;;;5071562;28;20461;-90
2022/08/15 03:11:52;;;;;;;3.03;2.30;;;23.10;98.00;;;;;;5071765;28;20465;-90
2022/08/15 03:14:23;;;;;;;3.40;2.40;;;23.20;98.00;;;;;;5072254;28;20459;-91
2022/08/15 03:16:51;;;;;;;6.30;2.60;;;23.10;98.00;;;;;;5071916;28;20824;-91
2022/08/15 03:19:20;;;;;;;10.13;2.70;;;22.90;98.00;;;;;;5071796;28;20457;-90
2022/08/15 03:21:50;;;;;;;4.50;2.60;;;22.90;98.00;;;;;;5072040;28;21001;-90
2022/08/15 03:24:19;;;;;;;3.00;2.60;;;22.90;98.00;;;;;;5071531;28;20753;-91
2022/08/15 03:26:46;;;;;;;3.97;2.60;;;22.80;98.00;;;;;;5071680;28;20479;-90
2022/08/15 03:29:19;;;;;;;3.60;2.53;;;22.90;98.00;;;;;;5070606;28;20464;-90
2022/08/15 03:31:49;;;;;;;3.53;2.40;;;22.90;98.00;;;;;;5071445;28;20530;-90
2022/08/15 03:34:18;;;;;;;2.70;2.20;;;23.00;98.00;;;;;;5071496;28;20457;-90
2022/08/15 03:36:46;;;;;;;3.30;2.33;;;23.00;98.00;;;;;;5071726;28;20461;-91
2022/08/15 03:39:16;;;;;;;3.83;2.93;;;23.10;98.00;;;;;;5070789;28;20868;-91
2022/08/15 03:41:44;;;;;;;4.00;2.00;;;22.90;98.00;;;;;;5071251;28;20517;-91
2022/08/15 03:44:11;;;;;;;2.70;2.20;;;23.00;98.00;;;;;;5071422;28;20481;-91
2022/08/15 03:46:38;;;;;;;3.30;2.57;;;23.10;98.00;;;;;;5071558;28;20460;-90
2022/08/15 03:49:06;;;;;;;4.50;2.60;;;23.00;98.00;;;;;;5070540;28;20461;-91
2022/08/15 03:51:34;;;;;;;2.63;2.10;;;23.00;98.00;;;;;;5071102;28;20484;-90
2022/08/15 03:54:01;;;;;;;3.07;2.13;;;22.90;98.00;;;;;;5070876;28;20955;-91
2022/08/15 03:56:33;;;;;;;3.70;2.50;;;22.80;98.00;;;;;;5071046;28;20468;-90
2022/08/15 03:59:01;;;;;;;3.33;2.20;;;22.90;98.00;;;;;;5070475;28;20476;-91
2022/08/15 04:01:31;;;;;;;3.17;2.30;;;22.90;98.00;;;;;;5071134;28;20503;-91
2022/08/15 04:03:58;;;;;;;4.20;2.60;;;23.00;98.00;;;;;;5070552;28;20477;-90
2022/08/15 04:06:29;;;;;;;4.00;2.40;;;22.90;98.00;;;;;;5070461;28;20479;-91
2022/08/15 04:08:57;;;;;;;3.73;2.73;;;22.80;98.00;;;;;;5070530;28;20517;-91
2022/08/15 04:11:29;;;;;;;4.23;2.47;;;22.60;98.00;;;;;;5071189;28;20471;-91
2022/08/15 04:13:58;;;;;;;2.73;2.13;;;22.70;98.00;;;;;;5071264;28;20465;-91
2022/08/15 04:16:25;;;;;;;4.57;2.80;;;22.60;98.00;;;;;;5071316;28;20867;-91
2022/08/15 04:18:53;;;;;;;4.80;2.30;;;22.70;98.00;;;;;;5070447;28;20490;-91
2022/08/15 04:21:20;;;;;;;2.70;1.90;;;22.60;98.00;;;;;;5070940;28;20538;-91
2022/08/15 04:23:49;;;;;;;4.23;2.43;;;22.50;98.00;;;;;;5071079;28;20464;-90
2022/08/15 04:26:18;;;;;;;2.27;2.13;;;22.50;98.00;;;;;;5070758;28;20464;-90
2022/08/15 04:28:45;;;;;;;3.10;2.03;;;22.40;98.00;;;;;;5070451;28;20539;-91
2022/08/15 04:31:29;;;;;;;4.33;2.10;;;22.50;98.00;;;;;;5071109;28;20485;-90
2022/08/15 04:33:59;;;;;;;2.80;2.00;;;22.60;98.00;;;;;;5070864;28;20460;-91
2022/08/15 04:36:27;;;;;;;3.30;2.27;;;22.60;98.00;;;;;;5070847;28;20985;-91
2022/08/15 04:38:54;;;;;;;3.17;2.07;;;22.50;98.00;;;;;;5070011;28;20467;-90
2022/08/15 04:41:21;;;;;;;3.83;2.80;;;22.50;98.00;;;;;;5070501;28;20496;-91
2022/08/15 04:43:50;;;;;;;3.77;2.43;;;22.50;98.00;;;;;;5070672;28;20922;-91
2022/08/15 04:46:18;;;;;;;3.50;2.10;;;22.50;98.00;;;;;;5070684;28;20453;-90
2022/08/15 04:48:46;;;;;;;3.53;2.30;;;22.60;98.00;;;;;;5070090;28;20460;-91
2022/08/15 04:51:14;;;;;;;2.00;1.70;;;22.60;98.00;;;;;;5070279;28;20465;-91
2022/08/15 04:53:44;;;;;;;4.67;2.70;;;22.80;98.00;;;;;;5070845;28;20461;-90
2022/08/15 04:56:11;;;;;;;3.60;2.20;;;22.80;98.00;;;;;;5070771;28;20488;-91
2022/08/15 04:58:38;;;;;;;3.27;2.10;;;22.80;98.00;;;;;;5070015;28;20464;-91
2022/08/15 05:01:07;;;;;;;4.37;2.20;;;22.80;98.00;;;;;;5070684;28;20477;-91
2022/08/15 05:03:35;;;;;;;5.50;2.60;;;22.80;98.00;;;;;;5070567;28;20475;-91
2022/08/15 05:06:06;;;;;;;2.00;1.77;;;22.70;98.00;;;;;;5070261;28;20476;-90
2022/08/15 05:08:35;;;;;;;3.23;2.20;;;22.90;98.00;;;;;;5070168;28;20553;-91
2022/08/15 05:11:07;;;;;;;2.83;2.30;;;22.80;98.00;;;;;;5070448;28;20979;-91
2022/08/15 05:13:36;;;;;;;2.77;2.10;;;22.80;98.00;;;;;;5070914;28;20461;-91
2022/08/15 05:16:07;;;;;;;2.73;1.90;;;22.60;98.00;;;;;;5074179;28;20461;-90
2022/08/15 05:18:35;;;;;;;5.10;2.30;;;22.70;98.00;;;;;;5073853;28;20869;-90
2022/08/15 05:21:05;;;;;;;3.30;1.90;;;22.60;98.00;;;;;;5074080;28;20782;-91
2022/08/15 05:23:33;;;;;;;3.23;2.30;;;22.70;98.00;;;;;;5073895;28;20469;-91
2022/08/15 05:26:01;;;;;;;3.80;2.40;;;22.70;98.00;;;;;;5073489;28;21000;-91
2022/08/15 05:28:29;;;;;;;2.70;2.07;;;22.70;98.00;;;;;;5073181;28;20455;-91
2022/08/15 05:30:58;;;;;;;3.80;2.20;;;22.70;98.00;;;;;;5073791;28;20910;-91
2022/08/15 05:33:27;;;;;;;3.47;2.00;;;22.70;98.00;;;;;;5073715;28;20449;-91
2022/08/15 05:35:59;;;;;;;2.90;2.10;;;22.50;98.00;;;;;;5073713;28;20457;-91
2022/08/15 05:38:31;;;;;;;4.90;2.63;;;22.50;98.00;;;;;;5073138;28;20448;-91
2022/08/15 05:41:22;;;;;;;2.30;1.80;;;22.50;98.00;;;;;;5073542;28;20473;-90
2022/08/15 05:44:00;;;;;;;2.20;1.80;;;22.50;98.00;;;;;;5073536;28;20467;-91
2022/08/15 05:46:45;;;;;;;3.00;2.10;;;22.50;98.00;;;;;;5073342;28;21016;-90
2022/08/15 05:49:24;;;;;;;2.70;1.70;;;22.60;98.00;;;;;;5072327;28;21164;-90
2022/08/15 05:52:06;;;;;;;2.60;2.20;;;22.50;98.00;;;;;;5073570;28;20919;-90
2022/08/15 05:54:50;;;;;;;2.47;2.27;;;22.50;98.00;;;;;;5073420;28;20463;-90
2022/08/15 05:57:21;;;;;;;4.20;2.30;;;22.40;98.00;;;;;;5072877;28;20459;-91
2022/08/15 05:59:52;;;;;;;2.90;1.93;;;22.40;98.00;;;;;;5073194;28;20480;-90
2022/08/15 06:02:26;;;;;;;3.10;2.10;;;22.40;98.00;;;;;;5073386;28;20818;-90
2022/08/15 06:08:33;;;;;;;2.83;1.87;;;22.20;98.00;;;;;;4999214;28;20456;-89
2022/08/15 06:11:16;;;;;;;3.27;2.30;;;22.40;98.00;;;;;;5073123;28;20627;-89
2022/08/15 06:37:19;;;;;;;2.07;1.83;;;23.40;97.40;;;;;;5077869;22;20892;-64
2022/08/15 06:40:06;;;;;;;4.17;2.00;;;23.50;97.50;;;;;;5072577;28;20456;-63
2022/08/15 06:42:36;;;;;;;1.90;1.60;;;23.50;96.90;;;;;;5072672;28;20457;-65
2022/08/15 06:45:08;;;;;;;2.57;1.93;;;23.50;97.10;;;;;;5072229;28;20874;-64
2022/08/15 06:47:37;;;;;;;2.97;2.10;;;23.40;96.70;;;;;;5072543;28;20457;-63
2022/08/15 06:50:10;;;;;;;2.80;1.90;;;23.60;96.70;;;;;;5072337;28;20457;-64
2022/08/15 06:52:41;;;;;;;2.63;2.00;;;23.70;96.30;;;;;;5072097;28;20457;-63
2022/08/15 06:55:09;;;;;;;6.57;2.20;;;23.70;96.40;;;;;;5072200;28;20452;-64
2022/08/15 06:57:46;;;;;;;2.97;2.17;;;23.80;95.90;;;;;;5069768;28;20461;-64
2022/08/15 07:00:20;;;;;;;2.07;1.60;;;23.80;95.30;;;;;;5051655;28;20575;-65
2022/08/15 07:02:57;;;;;;;3.00;2.00;;;23.50;96.20;;;;;;5069633;28;20480;-64
2022/08/15 07:05:30;;;;;;;2.77;1.83;;;23.60;96.60;;;;;;5051620;28;21108;-69
2022/08/15 07:08:20;;;;;;;2.80;1.80;;;23.50;96.70;;;;;;5069451;28;20950;-70
2022/08/15 07:10:52;;;;;;;2.10;1.63;;;23.20;97.40;;;;;;5069355;28;20464;-69
2022/08/15 07:13:24;;;;;;;2.93;1.90;;;23.10;97.90;;;;;;5069580;28;20476;-69
2022/08/15 07:15:56;;;;;;;2.63;2.17;;;23.10;98.00;;;;;;5069287;28;20461;-69
2022/08/15 07:18:33;;;;;;;4.53;2.00;;;22.90;98.00;;;;;;5069347;28;20572;-69
2022/08/15 07:21:02;;;;;;;2.50;1.83;;;22.90;98.00;;;;;;5069249;28;20460;-69
2022/08/15 07:23:33;;;;;;;1.80;1.60;;;22.90;98.00;;;;;;5069268;28;20457;-69
2022/08/15 07:26:06;;;;;;;2.43;1.80;;;22.90;98.00;;;;;;5068901;28;20492;-69
2022/08/15 07:28:34;;;;;;;2.03;1.60;;;23.00;98.00;;;;;;5068635;28;21013;-70
2022/08/15 07:31:11;;;;;;;2.47;2.10;;;23.10;98.00;;;;;;5069117;28;20457;-69
2022/08/15 07:33:43;;;;;;;1.93;1.60;;;23.20;97.90;;;;;;5069068;28;20472;-69
2022/08/15 07:36:18;;;;;;;2.97;1.90;;;23.00;98.00;;;;;;5068624;28;20464;-69
2022/08/15 07:38:48;;;;;;;2.50;2.10;;;23.10;97.90;;;;;;5068048;28;20461;-69
2022/08/15 07:41:26;;;;;;;2.50;1.60;;;23.20;97.80;;;;;;5068694;28;20521;-69
2022/08/15 07:43:59;;;;;;;2.67;1.87;;;23.20;97.00;;;;;;5068794;28;20545;-69
2022/08/15 07:46:37;;;;;;;2.70;1.80;;;23.40;96.70;;;;;;5060326;28;21065;-69
2022/08/15 07:49:15;;;;;;;4.70;1.80;;;23.70;96.80;;;;;;5050679;28;20955;-69
2022/08/15 07:51:45;;;;;;;2.87;2.10;;;23.90;95.00;;;;;;5066551;28;20725;-70
2022/08/15 07:54:25;;;;;;;1.80;1.50;;;24.00;94.10;;;;;;5068818;28;20461;-69
2022/08/15 07:56:57;;;;;;;2.83;2.00;;;24.00;94.80;;;;;;5064999;28;20457;-69
2022/08/15 07:59:28;;;;;;;2.37;1.60;;;24.10;94.80;;;;;;5071897;28;20511;-69
2022/08/15 08:02:04;;;;;;;3.80;2.03;;;24.10;94.40;;;;;;5068698;28;20453;-70
2022/08/15 08:04:34;;;;;;;2.20;1.90;;;24.10;94.50;;;;;;5068877;28;20518;-69
2022/08/15 08:07:05;;;;;;;2.40;1.70;;;24.10;93.60;;;;;;5068466;28;20496;-69
2022/08/15 08:09:41;;;;;;;2.07;1.73;;;24.20;93.80;;;;;;5068615;28;20551;-69
2022/08/15 08:12:22;;;;;;;2.53;2.03;;;24.30;93.40;;;;;;5068555;28;20821;-69
2022/08/15 08:15:02;;;;;;;2.60;1.90;;;24.50;92.70;;;;;;5067416;28;20531;-70
2022/08/15 08:17:36;;;;;;;2.10;1.70;;;24.40;93.10;;;;;;5061652;28;20452;-69
2022/08/15 08:20:13;;;;;;;2.33;1.80;;;24.40;92.60;;;;;;5068728;28;20460;-70
2022/08/15 08:22:49;;;;;;;2.00;1.70;;;24.50;92.80;;;;;;5068449;28;20491;-69
2022/08/15 08:25:27;;;;;;;2.43;1.90;;;24.40;92.20;;;;;;5068472;28;20487;-70
2022/08/15 08:28:07;;;;;;;2.40;1.80;;;24.50;91.70;;;;;;5066243;28;20860;-69
2022/08/15 08:30:39;;;;;;;2.20;1.73;;;24.40;92.00;;;;;;5069476;28;20529;-69
2022/08/15 08:33:15;;;;;;;2.07;1.80;;;24.10;92.50;;;;;;5069368;28;20848;-69
2022/08/15 08:35:52;;;;;;;2.50;1.77;;;24.00;92.00;;;;;;5069160;28;20935;-69
2022/08/15 08:38:33;;;;;;;2.10;1.53;;;24.10;92.70;;;;;;5069020;28;20510;-69
2022/08/15 08:41:34;;;;;;;3.17;2.07;;;24.20;91.90;;;;;;5068782;28;21433;-70
2022/08/15 08:44:17;;;;;;;4.00;2.03;;;24.50;92.70;;;;;;5069865;28;20467;-70
2022/08/15 08:47:03;;;;;;;1.90;1.70;;;24.90;90.20;;;;;;5069880;28;20496;-69
2022/08/15 08:49:42;;;;;;;2.07;1.70;;;25.10;89.60;;;;;;5060683;28;20460;-69
2022/08/15 08:52:19;;;;;;;2.30;1.93;;;25.10;88.90;;;;;;5070368;28;20464;-69
2022/08/15 08:55:01;;;;;;;1.87;1.57;;;25.10;89.50;;;;;;5059861;28;20484;-69
2022/08/15 08:57:37;;;;;;;2.00;1.67;;;25.10;89.30;;;;;;5072035;28;20456;-69
2022/08/15 09:00:08;;;;;;;2.00;1.70;;;25.20;89.10;;;;;;5072229;28;20455;-69
2022/08/15 09:02:41;;;;;;;2.13;1.80;;;25.30;89.00;;;;;;5072242;28;20946;-69
2022/08/15 09:05:15;;;;;;;1.87;1.63;;;25.50;88.20;;;;;;5072064;28;20464;-67
2022/08/15 09:07:49;;;;;;;5.20;2.07;;;25.70;87.80;;;;;;5072042;28;20974;-67
2022/08/15 09:10:23;;;;;;;2.20;1.83;;;26.10;86.40;;;;;;5071848;28;20539;-67
2022/08/15 09:15:42;;;;;;;2.53;1.87;;;26.70;84.30;;;;;;5065480;28;20460;-67
2022/08/15 09:18:15;;;;;;;1.93;1.80;;;26.80;84.20;;;;;;5071708;28;20463;-67
2022/08/15 09:20:46;;;;;;;3.20;2.00;;;26.90;83.70;;;;;;5071828;28;20515;-67
2022/08/15 09:23:14;;;;;;;3.10;1.70;;;27.10;84.30;;;;;;5071252;28;20567;-67
2022/08/15 09:25:50;;;;;;;2.50;1.90;;;27.30;83.80;;;;;;5071442;28;20495;-67
2022/08/15 09:28:26;;;;;;;2.13;1.70;;;27.10;84.10;;;;;;5071560;28;20471;-67
2022/08/15 09:30:55;;;;;;;3.40;2.00;;;26.90;84.80;;;;;;5071351;28;20456;-67
2022/08/15 09:33:53;;;;;;;2.80;1.97;;;26.70;85.60;;;;;;5071114;28;20465;-67
2022/08/15 09:36:36;;;;;;;1.87;1.50;;;26.50;85.70;;;;;;5055872;28;20461;-68
2022/08/15 09:39:27;;;;;;;2.80;1.83;;;26.50;86.10;;;;;;5071176;28;20460;-67
2022/08/15 09:42:08;;;;;;;1.90;1.67;;;26.30;85.70;;;;;;5071035;28;20453;-68
2022/08/15 09:44:50;;;;;;;2.20;1.87;;;26.00;86.40;;;;;;5071135;28;20853;-68
2022/08/15 09:47:39;;;;;;;2.20;1.80;;;26.10;86.70;;;;;;5071067;28;20503;-67
2022/08/15 09:50:34;;;;;;;2.20;1.70;;;26.30;87.20;;;;;;5061033;28;20943;-67
2022/08/15 09:53:07;;;;;;;2.50;1.70;;;26.20;86.70;;;;;;5070681;28;20494;-67
2022/08/15 09:55:44;;;;;;;2.13;1.70;;;26.10;87.00;;;;;;5071023;28;20449;-68
2022/08/15 09:58:20;;;;;;;2.37;2.23;;;26.20;86.90;;;;;;5070883;28;20470;-66
2022/08/15 10:01:03;;;;;;;2.33;1.83;;;26.20;86.90;;;;;;5070062;28;20854;-65
2022/08/15 10:03:56;;;;;;;2.90;1.70;;;26.30;87.10;;;;;;5071482;28;20457;-66
2022/08/15 10:06:26;;;;;;;2.03;1.80;;;26.30;86.40;;;;;;5065873;28;21059;-65
2022/08/15 10:09:34;;;;;;;4.10;1.87;;;26.50;85.60;;;;;;5272566;22;20772;-65
2022/08/15 10:12:22;;;;;;;2.17;1.80;;;26.70;84.90;;;;;;5009450;28;20460;-65
2022/08/15 10:15:06;;;;;;;2.17;1.80;;;26.90;84.40;;;;;;5001798;28;20463;-65
2022/08/15 10:17:45;;;;;;;2.50;1.67;;;26.80;84.90;;;;;;5054305;28;20461;-63
2022/08/15 10:21:02;;;;;;;1.83;1.60;;;26.90;84.60;;;;;;5070721;28;20492;-65
2022/08/15 10:23:42;;;;;;;2.57;1.97;;;27.10;84.00;;;;;;5062838;28;20471;-65
2022/08/15 10:26:24;;;;;;;1.80;1.70;;;27.10;82.90;;;;;;5054336;28;21029;-65
2022/08/15 10:29:01;;;;;;;2.13;1.80;;;27.30;83.30;;;;;;5070853;28;20481;-66
2022/08/15 10:31:31;;;;;;;2.60;1.80;;;27.30;82.40;;;;;;5070393;28;20954;-65
2022/08/15 10:34:03;;;;;;;2.47;1.90;;;27.30;82.30;;;;;;5069974;28;20464;-66
2022/08/15 10:36:35;;;;;;;2.37;1.80;;;27.20;82.20;;;;;;5070467;28;20464;-65
2022/08/15 10:39:22;;;;;;;2.80;2.00;;;27.20;82.40;;;;;;5070336;28;20847;-67
2022/08/15 10:42:08;;;;;;;2.23;1.73;;;27.50;82.60;;;;;;5069855;28;20468;-67
2022/08/15 10:45:00;;;;;;;2.40;1.90;;;27.80;81.50;;;;;;5063200;28;20496;-68
2022/08/15 10:47:34;;;;;;;2.43;1.90;;;27.70;81.80;;;;;;5051950;28;20818;-68
2022/08/15 10:50:14;;;;;;;2.33;1.80;;;27.60;81.40;;;;;;5068020;28;20468;-69
2022/08/15 10:52:56;;;;;;;2.47;1.80;;;28.00;80.90;;;;;;5068129;28;20463;-68
2022/08/15 10:55:31;;;;;;;2.00;1.80;;;28.50;79.70;;;;;;5052217;28;20452;-69
2022/08/15 10:58:03;;;;;;;3.13;2.03;;;29.00;78.90;;;;;;5069587;28;20486;-66
2022/08/15 11:00:39;;;;;;;1.63;1.47;;;29.20;77.50;;;;;;5061829;28;20882;-66
2022/08/15 11:03:12;;;;;;;2.27;1.60;;;29.20;78.00;;;;;;5069085;28;20851;-65
2022/08/15 11:05:41;;;;;;;4.30;1.90;;;29.00;78.40;;;;;;5069513;28;20469;-66
2022/08/15 11:08:17;;;;;;;2.53;1.90;;;29.00;77.90;;;;;;5069420;28;20452;-69
2022/08/15 11:10:45;;;;;;;2.47;1.80;;;29.30;77.80;;;;;;5069235;28;20460;-67
2022/08/15 11:13:17;;;;;;;2.87;2.20;;;29.70;76.90;;;;;;5068275;28;20496;-67
2022/08/15 11:15:54;;;;;;;1.93;1.70;;;30.10;76.70;;;;;;5069181;28;20461;-66
2022/08/15 11:18:27;;;;;;;3.30;2.30;;;30.40;75.20;;;;;;5069432;28;20457;-67
2022/08/15 11:21:17;;;;;;;2.00;1.70;;;30.60;74.20;;;;;;5069342;28;20959;-66
2022/08/15 11:23:52;;;;;;;3.00;2.20;;;30.90;73.80;;;;;;5069828;28;20460;-65
2022/08/15 11:26:34;;;;;;;3.33;2.10;;;31.00;73.90;;;;;;5069074;28;20519;-68
2022/08/15 11:29:14;;;;;;;2.80;2.03;;;31.10;73.10;;;;;;5059964;28;20502;-66
2022/08/15 11:31:54;;;;;;;5.23;2.13;;;31.40;72.30;;;;;;5068911;28;20585;-66
2022/08/15 11:34:25;;;;;;;2.40;1.90;;;31.50;72.10;;;;;;5068739;28;20457;-67
2022/08/15 11:36:56;;;;;;;3.43;2.20;;;31.80;71.30;;;;;;5051728;28;20464;-66
2022/08/15 11:39:28;;;;;;;2.80;2.10;;;31.90;70.70;;;;;;5069099;28;20476;-67
2022/08/15 11:41:59;;;;;;;3.03;2.00;;;31.70;71.20;;;;;;5068990;28;20469;-66
2022/08/15 11:44:36;;;;;;;2.77;2.13;;;31.70;71.10;;;;;;5069059;28;20472;-66
2022/08/15 11:47:05;;;;;;;2.17;1.87;;;31.80;70.80;;;;;;5068537;28;20511;-66
2022/08/15 11:49:35;;;;;;;2.93;2.10;;;32.20;71.00;;;;;;5069965;28;20552;-67
2022/08/15 11:52:07;;;;;;;3.73;2.17;;;32.60;69.10;;;;;;5071283;28;20456;-68
2022/08/15 11:54:34;;;;;;;2.60;2.13;;;32.70;68.90;;;;;;5071344;28;20457;-68
2022/08/15 11:57:04;;;;;;;2.97;2.00;;;32.70;68.90;;;;;;5070487;28;20465;-68
2022/08/15 11:59:33;;;;;;;2.40;1.88;;;32.60;69.30;;;;;;5053561;28;20457;-71
2022/08/15 12:02:29;;;;;;;3.35;2.20;;;32.40;69.50;;;;;;5069844;28;20450;-67
2022/08/15 12:05:09;;;;;;;2.83;2.10;;;32.30;68.30;;;;;;5069796;28;20450;-70
2022/08/15 12:07:44;;;;;;;4.10;2.00;;;31.90;68.80;;;;;;5070231;28;20454;-73
2022/08/15 12:10:25;;;;;;;3.22;2.05;;;31.90;69.70;;;;;;5069978;28;20449;-73
2022/08/15 12:12:54;;;;;;;3.00;2.10;;;31.40;68.70;;;;;;5070684;28;20562;-68
2022/08/15 12:15:25;;;;;;;3.17;2.00;;;30.90;69.90;;;;;;5070177;28;20467;-70
2022/08/15 12:18:07;;;;;;;3.10;2.00;;;30.90;71.20;;;;;;5070087;28;20450;-68
2022/08/15 12:20:41;;;;;;;3.40;2.00;;;31.40;70.10;;;;;;5070375;28;20928;-68
2022/08/15 12:23:36;;;;;;;2.73;2.10;;;31.90;68.60;;;;;;5071264;28;20829;-67
2022/08/15 12:26:05;;;;;;;2.87;2.23;;;32.20;68.20;;;;;;5074992;28;20491;-68
2022/08/15 12:28:34;;;;;;;4.82;1.98;;;32.60;67.60;;;;;;5056461;28;20808;-74
2022/08/15 12:31:06;;;;;;;3.97;2.17;;;32.80;66.40;;;;;;5075162;28;20203;-70
2022/08/15 12:33:34;;;;;;;2.37;2.03;;;32.50;66.80;;;;;;5075111;28;20457;-74
2022/08/15 12:36:02;;;;;;;2.57;2.10;;;32.00;67.30;;;;;;5075166;28;20460;-75
2022/08/15 12:38:31;;;;;;;2.27;2.10;;;31.80;68.50;;;;;;5075699;28;20465;-71
2022/08/15 12:41:01;;;;;;;2.53;2.10;;;32.00;68.80;;;;;;5075737;28;20840;-68
2022/08/15 12:43:31;;;;;;;1.97;1.80;;;32.50;67.70;;;;;;5075927;28;20449;-68
2022/08/15 12:45:59;;;;;;;3.47;2.40;;;32.80;66.40;;;;;;5075130;28;20446;-69
2022/08/15 12:48:33;;;;;;;3.30;2.20;;;32.80;66.70;;;;;;5075399;28;20585;-68
2022/08/15 12:51:01;;;;;;;2.80;2.10;;;33.10;65.90;;;;;;5075211;28;20807;-69
2022/08/15 12:53:30;;;;;;;2.73;2.17;;;33.30;65.60;;;;;;5074699;28;20448;-70
2022/08/15 12:55:58;;;;;;;3.57;2.20;;;33.70;64.90;;;;;;5074656;28;20718;-71
2022/08/15 12:58:26;;;;;;;3.70;2.10;;;33.90;64.10;;;;;;5056867;28;21024;-71
2022/08/15 13:00:55;;;;;;;2.13;1.90;;;33.80;64.40;;;;;;5057127;28;20452;-71
2022/08/15 13:03:28;;;;;;;3.20;2.07;;;34.10;63.80;;;;;;5074513;28;20702;-71
2022/08/15 13:06:00;;;;;;;2.63;2.13;;;34.40;63.90;;;;;;5073514;28;20446;-71
2022/08/15 13:08:27;;;;;;;2.40;2.00;;;34.50;63.60;;;;;;5073655;28;20461;-71
2022/08/15 13:10:55;;;;;;;2.70;2.10;;;34.70;63.40;;;;;;5074276;28;20190;-71
2022/08/15 13:13:23;;;;;;;2.90;2.37;;;34.50;63.00;;;;;;5074404;28;20822;-71
2022/08/15 13:15:52;;;;;;;3.60;2.30;;;34.00;63.70;;;;;;5073786;28;20457;-71
2022/08/15 13:18:22;;;;;;;2.70;1.93;;;33.00;65.10;;;;;;5072923;28;20199;-71
2022/08/15 13:23:41;;;;;;;3.85;2.28;;;32.10;67.30;;;;;;5074133;28;20449;-69
2022/08/15 13:26:13;;;;;;;3.20;2.17;;;32.40;66.70;;;;;;5074042;28;20195;-70
2022/08/15 13:28:42;;;;;;;2.40;1.80;;;32.90;66.20;;;;;;5073194;28;20963;-70
2022/08/15 13:31:16;;;;;;;2.90;2.20;;;33.50;65.20;;;;;;5073258;28;20446;-72
2022/08/15 13:33:44;;;;;;;3.73;2.30;;;33.40;64.20;;;;;;5074219;28;20236;-66
2022/08/15 13:36:15;;;;;;;2.75;2.00;;;33.40;64.50;;;;;;5074169;28;20464;-71
2022/08/15 13:38:46;;;;;;;2.83;2.00;;;33.80;63.70;;;;;;5088051;28;20522;-71
2022/08/15 13:41:18;;;;;;;2.90;2.00;;;34.10;63.40;;;;;;5091520;28;20206;-71
2022/08/15 13:43:51;;;;;;;2.10;1.97;;;34.20;62.30;;;;;;5081433;28;20453;-68
2022/08/15 13:46:20;;;;;;;2.90;2.13;;;34.30;63.30;;;;;;5084538;28;20475;-65
2022/08/15 13:48:50;;;;;;;3.00;2.50;;;34.00;62.90;;;;;;5094472;28;20484;-68
2022/08/15 13:51:21;;;;;;;3.20;2.00;;;33.50;64.10;;;;;;5094607;28;20448;-72
2022/08/15 13:53:49;;;;;;;3.00;2.40;;;33.60;64.00;;;;;;5094362;28;20464;-72